Mariner A — 9HVA7 — position and weather

sailwx.info

Track history (hours):
 
Tides and Currents Weather Stations Pressure Air Temp Water Temp Dewpoint Dewpoint Depression Visibility Wind Speed Wind Dir Waves Ship Positions

Mariner A

Last reported at 2014-Dec-05 08:30 UTC. Time now 2014-Dec-21 03:20 UTC.
Position N 34°10' E 034°36'.
Warning: this ship's position is 15 days out of date.

Length 176 m; draft 7.8 m.

Type: Tanker. MMSI: 215817000.

Date/timePositionNaut miles runAvg speedWind from/ knotsBaromVisibWave heightAir tempDewpointWater temp
2014-Dec-05 08:30N 34°10' E 034°36'7310.5
2014-Dec-05 01:32N 32°57' E 034°39'  
2014-Dec-01 17:30N 32°47' E 034°48'1212.2
2014-Dec-01 16:33N 32°36' E 034°44'1312.6
2014-Dec-01 15:33N 32°24' E 034°40'  
2014-Nov-27 12:24N 36°27' E 026°49'3411.8
2014-Nov-27 09:31N 36°51' E 026°20'1111.7
2014-Nov-27 08:33N 36°60' E 026°11'1111.4
2014-Nov-27 07:33N 37°10' E 026°04'1111.4
2014-Nov-27 06:33N 37°20' E 025°57'1211.5
2014-Nov-27 05:33N 37°30' E 025°50'1211.5
2014-Nov-27 04:33N 37°41' E 025°45'1211.9
2014-Nov-27 03:33N 37°52' E 025°39'22510.1
2014-Nov-26 05:10N 40°53' E 028°33'1111.9
2014-Nov-26 04:17N 40°54' E 028°47'810.9
2014-Nov-26 03:33N 40°58' E 028°56'13 9.5
2014-Nov-26 02:14N 41°09' E 029°04'  
Track history (hours):
 
Tides and Currents Weather Stations Pressure Air Temp Water Temp Dewpoint Dewpoint Depression Visibility Wind Speed Wind Dir Waves Ship Positions

Mariner A

Last reported at 2014-Dec-05 08:30 UTC. Time now 2014-Dec-21 03:20 UTC.
Position N 34°10' E 034°36'.
Warning: this ship's position is 15 days out of date.

Length 176 m; draft 7.8 m.

Type: Tanker. MMSI: 215817000.

Date/timePositionNaut miles runAvg speedWind from/ knotsBaromVisibWave heightAir tempDewpointWater temp
2014-Dec-05 08:30N 34°10' E 034°36'7310.5
2014-Dec-05 01:32N 32°57' E 034°39'  
2014-Dec-01 17:30N 32°47' E 034°48'1212.2
2014-Dec-01 16:33N 32°36' E 034°44'1312.6
2014-Dec-01 15:33N 32°24' E 034°40'  
2014-Nov-27 12:24N 36°27' E 026°49'3411.8
2014-Nov-27 09:31N 36°51' E 026°20'1111.7
2014-Nov-27 08:33N 36°60' E 026°11'1111.4
2014-Nov-27 07:33N 37°10' E 026°04'1111.4
2014-Nov-27 06:33N 37°20' E 025°57'1211.5
2014-Nov-27 05:33N 37°30' E 025°50'1211.5
2014-Nov-27 04:33N 37°41' E 025°45'1211.9
2014-Nov-27 03:33N 37°52' E 025°39'22510.1
2014-Nov-26 05:10N 40°53' E 028°33'1111.9
2014-Nov-26 04:17N 40°54' E 028°47'810.9
2014-Nov-26 03:33N 40°58' E 028°56'13 9.5
2014-Nov-26 02:14N 41°09' E 029°04'  

Dump ship's entire track history